sensor_id;sensor_type;location;lat;lon;timestamp;P1;durP1;ratioP1;P2;durP2;ratioP2
45548;SDS011;31270;48.328;10.096;2023-07-13T00:00:33;16.75;;;8.98;;
45548;SDS011;31270;48.328;10.096;2023-07-13T00:02:58;13.35;;;9.38;;
45548;SDS011;31270;48.328;10.096;2023-07-13T00:05:24;17.23;;;10.52;;
45548;SDS011;31270;48.328;10.096;2023-07-13T00:07:50;13.93;;;10.55;;
45548;SDS011;31270;48.328;10.096;2023-07-13T00:10:16;15.40;;;10.48;;
45548;SDS011;31270;48.328;10.096;2023-07-13T00:12:43;17.77;;;10.90;;
45548;SDS011;31270;48.328;10.096;2023-07-13T00:15:13;14.20;;;10.30;;
45548;SDS011;31270;48.328;10.096;2023-07-13T00:17:42;18.10;;;10.85;;
45548;SDS011;31270;48.328;10.096;2023-07-13T00:20:10;21.08;;;10.82;;
45548;SDS011;31270;48.328;10.096;2023-07-13T00:22:36;18.23;;;10.52;;
45548;SDS011;31270;48.328;10.096;2023-07-13T00:25:02;15.75;;;11.07;;
45548;SDS011;31270;48.328;10.096;2023-07-13T00:27:28;16.55;;;11.57;;
45548;SDS011;31270;48.328;10.096;2023-07-13T00:29:56;17.73;;;11.48;;
45548;SDS011;31270;48.328;10.096;2023-07-13T00:32:25;19.77;;;12.38;;
45548;SDS011;31270;48.328;10.096;2023-07-13T00:34:51;22.27;;;12.23;;
45548;SDS011;31270;48.328;10.096;2023-07-13T00:37:17;13.70;;;9.93;;
45548;SDS011;31270;48.328;10.096;2023-07-13T00:39:49;12.27;;;9.70;;
45548;SDS011;31270;48.328;10.096;2023-07-13T00:42:15;9.90;;;8.52;;
45548;SDS011;31270;48.328;10.096;2023-07-13T00:44:41;11.38;;;8.20;;
45548;SDS011;31270;48.328;10.096;2023-07-13T00:47:25;9.57;;;7.38;;
45548;SDS011;31270;48.328;10.096;2023-07-13T00:49:51;11.05;;;7.78;;
45548;SDS011;31270;48.328;10.096;2023-07-13T00:52:17;12.40;;;7.78;;
45548;SDS011;31270;48.328;10.096;2023-07-13T00:54:43;13.68;;;7.90;;
45548;SDS011;31270;48.328;10.096;2023-07-13T00:57:12;14.77;;;7.47;;
45548;SDS011;31270;48.328;10.096;2023-07-13T00:59:42;9.48;;;6.80;;
45548;SDS011;31270;48.328;10.096;2023-07-13T01:02:11;12.82;;;7.38;;
45548;SDS011;31270;48.328;10.096;2023-07-13T01:04:37;11.07;;;6.78;;
45548;SDS011;31270;48.328;10.096;2023-07-13T01:07:03;11.50;;;6.93;;
45548;SDS011;31270;48.328;10.096;2023-07-13T01:09:30;8.38;;;6.63;;
45548;SDS011;31270;48.328;10.096;2023-07-13T01:11:55;9.30;;;6.50;;
45548;SDS011;31270;48.328;10.096;2023-07-13T01:14:21;8.20;;;6.63;;
45548;SDS011;31270;48.328;10.096;2023-07-13T01:16:47;7.95;;;6.10;;
45548;SDS011;31270;48.328;10.096;2023-07-13T01:19:21;7.82;;;5.95;;
45548;SDS011;31270;48.328;10.096;2023-07-13T01:21:51;9.05;;;5.63;;
45548;SDS011;31270;48.328;10.096;2023-07-13T01:24:17;9.45;;;6.15;;
45548;SDS011;31270;48.328;10.096;2023-07-13T01:26:43;9.38;;;6.00;;
45548;SDS011;31270;48.328;10.096;2023-07-13T01:29:09;10.63;;;6.13;;
45548;SDS011;31270;48.328;10.096;2023-07-13T01:31:34;11.52;;;6.20;;
45548;SDS011;31270;48.328;10.096;2023-07-13T01:34:00;8.07;;;6.22;;
45548;SDS011;31270;48.328;10.096;2023-07-13T01:36:25;9.50;;;5.30;;
45548;SDS011;31270;48.328;10.096;2023-07-13T01:38:51;9.32;;;6.30;;
45548;SDS011;31270;48.328;10.096;2023-07-13T01:41:17;8.07;;;6.05;;
45548;SDS011;31270;48.328;10.096;2023-07-13T01:43:42;8.02;;;5.22;;
45548;SDS011;31270;48.328;10.096;2023-07-13T01:46:08;7.35;;;5.38;;
45548;SDS011;31270;48.328;10.096;2023-07-13T01:48:34;7.35;;;5.70;;
45548;SDS011;31270;48.328;10.096;2023-07-13T01:51:00;6.25;;;5.30;;
45548;SDS011;31270;48.328;10.096;2023-07-13T01:53:26;9.18;;;5.85;;
45548;SDS011;31270;48.328;10.096;2023-07-13T01:55:51;8.70;;;5.57;;
45548;SDS011;31270;48.328;10.096;2023-07-13T01:58:17;9.55;;;5.32;;
45548;SDS011;31270;48.328;10.096;2023-07-13T02:00:43;5.50;;;4.97;;
45548;SDS011;31270;48.328;10.096;2023-07-13T02:03:09;7.93;;;5.05;;
45548;SDS011;31270;48.328;10.096;2023-07-13T02:05:34;7.88;;;4.97;;
45548;SDS011;31270;48.328;10.096;2023-07-13T02:08:01;7.68;;;4.95;;
45548;SDS011;31270;48.328;10.096;2023-07-13T02:10:26;6.65;;;4.57;;
45548;SDS011;31270;48.328;10.096;2023-07-13T02:12:54;6.05;;;4.40;;
45548;SDS011;31270;48.328;10.096;2023-07-13T02:15:20;6.65;;;5.07;;
45548;SDS011;31270;48.328;10.096;2023-07-13T02:17:46;5.97;;;4.93;;
45548;SDS011;31270;48.328;10.096;2023-07-13T02:20:12;8.25;;;4.30;;
45548;SDS011;31270;48.328;10.096;2023-07-13T02:22:38;5.75;;;4.70;;
45548;SDS011;31270;48.328;10.096;2023-07-13T02:25:04;6.05;;;4.30;;
45548;SDS011;31270;48.328;10.096;2023-07-13T02:27:31;6.70;;;4.32;;
45548;SDS011;31270;48.328;10.096;2023-07-13T02:29:57;5.43;;;4.68;;
45548;SDS011;31270;48.328;10.096;2023-07-13T02:32:23;5.97;;;4.90;;
45548;SDS011;31270;48.328;10.096;2023-07-13T02:34:50;8.55;;;4.35;;
45548;SDS011;31270;48.328;10.096;2023-07-13T02:37:17;6.95;;;4.78;;
45548;SDS011;31270;48.328;10.096;2023-07-13T02:39:43;7.93;;;5.03;;
45548;SDS011;31270;48.328;10.096;2023-07-13T02:42:08;9.13;;;4.75;;
45548;SDS011;31270;48.328;10.096;2023-07-13T02:44:40;9.85;;;4.60;;
45548;SDS011;31270;48.328;10.096;2023-07-13T02:47:05;7.38;;;4.32;;
45548;SDS011;31270;48.328;10.096;2023-07-13T02:49:31;8.95;;;4.20;;
45548;SDS011;31270;48.328;10.096;2023-07-13T02:51:57;4.97;;;4.45;;
45548;SDS011;31270;48.328;10.096;2023-07-13T02:54:23;4.97;;;4.18;;
45548;SDS011;31270;48.328;10.096;2023-07-13T02:56:49;5.15;;;4.65;;
45548;SDS011;31270;48.328;10.096;2023-07-13T02:59:14;5.90;;;3.72;;
45548;SDS011;31270;48.328;10.096;2023-07-13T03:01:40;4.88;;;4.07;;
45548;SDS011;31270;48.328;10.096;2023-07-13T03:04:06;7.35;;;3.83;;
45548;SDS011;31270;48.328;10.096;2023-07-13T03:06:33;9.48;;;4.35;;
45548;SDS011;31270;48.328;10.096;2023-07-13T03:08:59;6.03;;;4.20;;
45548;SDS011;31270;48.328;10.096;2023-07-13T03:11:29;13.60;;;4.38;;
45548;SDS011;31270;48.328;10.096;2023-07-13T03:13:56;6.10;;;4.20;;
45548;SDS011;31270;48.328;10.096;2023-07-13T03:16:22;4.78;;;3.85;;
45548;SDS011;31270;48.328;10.096;2023-07-13T03:18:48;6.55;;;4.10;;
45548;SDS011;31270;48.328;10.096;2023-07-13T03:21:14;6.63;;;4.32;;
45548;SDS011;31270;48.328;10.096;2023-07-13T03:23:41;6.60;;;4.38;;
45548;SDS011;31270;48.328;10.096;2023-07-13T03:26:11;5.68;;;4.30;;
45548;SDS011;31270;48.328;10.096;2023-07-13T03:28:42;6.07;;;4.60;;
45548;SDS011;31270;48.328;10.096;2023-07-13T03:31:12;5.70;;;4.40;;
45548;SDS011;31270;48.328;10.096;2023-07-13T03:33:41;5.47;;;4.18;;
45548;SDS011;31270;48.328;10.096;2023-07-13T03:36:11;6.25;;;4.60;;
45548;SDS011;31270;48.328;10.096;2023-07-13T03:38:39;8.43;;;4.90;;
45548;SDS011;31270;48.328;10.096;2023-07-13T03:41:05;6.65;;;4.70;;
45548;SDS011;31270;48.328;10.096;2023-07-13T03:43:30;5.22;;;4.72;;
45548;SDS011;31270;48.328;10.096;2023-07-13T03:45:56;11.82;;;5.28;;
45548;SDS011;31270;48.328;10.096;2023-07-13T03:48:22;9.57;;;4.85;;
45548;SDS011;31270;48.328;10.096;2023-07-13T03:50:48;8.05;;;4.70;;
45548;SDS011;31270;48.328;10.096;2023-07-13T03:53:16;7.93;;;4.57;;
45548;SDS011;31270;48.328;10.096;2023-07-13T03:55:43;9.32;;;4.63;;
45548;SDS011;31270;48.328;10.096;2023-07-13T03:58:26;6.55;;;4.47;;
45548;SDS011;31270;48.328;10.096;2023-07-13T04:00:53;5.30;;;4.57;;
45548;SDS011;31270;48.328;10.096;2023-07-13T04:03:19;8.88;;;4.82;;
45548;SDS011;31270;48.328;10.096;2023-07-13T04:05:45;6.25;;;4.10;;
45548;SDS011;31270;48.328;10.096;2023-07-13T04:08:12;6.78;;;5.03;;
45548;SDS011;31270;48.328;10.096;2023-07-13T04:10:38;8.15;;;5.07;;
45548;SDS011;31270;48.328;10.096;2023-07-13T04:13:04;8.32;;;4.80;;
45548;SDS011;31270;48.328;10.096;2023-07-13T04:15:30;7.07;;;4.50;;
45548;SDS011;31270;48.328;10.096;2023-07-13T04:17:57;6.78;;;4.40;;
45548;SDS011;31270;48.328;10.096;2023-07-13T04:20:24;5.07;;;4.57;;
45548;SDS011;31270;48.328;10.096;2023-07-13T04:22:51;9.45;;;4.93;;
45548;SDS011;31270;48.328;10.096;2023-07-13T04:25:18;5.07;;;4.57;;
45548;SDS011;31270;48.328;10.096;2023-07-13T04:27:45;7.85;;;4.70;;
45548;SDS011;31270;48.328;10.096;2023-07-13T04:30:11;6.20;;;4.60;;
45548;SDS011;31270;48.328;10.096;2023-07-13T04:32:37;7.75;;;4.80;;
45548;SDS011;31270;48.328;10.096;2023-07-13T04:35:02;10.23;;;4.80;;
45548;SDS011;31270;48.328;10.096;2023-07-13T04:37:29;8.65;;;4.65;;
45548;SDS011;31270;48.328;10.096;2023-07-13T04:39:55;9.27;;;4.72;;
45548;SDS011;31270;48.328;10.096;2023-07-13T04:42:21;8.32;;;4.78;;
45548;SDS011;31270;48.328;10.096;2023-07-13T04:44:50;6.18;;;4.25;;
45548;SDS011;31270;48.328;10.096;2023-07-13T04:47:17;6.18;;;4.57;;
45548;SDS011;31270;48.328;10.096;2023-07-13T04:49:43;8.07;;;4.95;;
45548;SDS011;31270;48.328;10.096;2023-07-13T04:52:09;6.28;;;4.78;;
45548;SDS011;31270;48.328;10.096;2023-07-13T04:54:35;5.00;;;4.50;;
45548;SDS011;31270;48.328;10.096;2023-07-13T04:57:02;6.72;;;4.25;;
45548;SDS011;31270;48.328;10.096;2023-07-13T04:59:30;8.18;;;4.50;;
45548;SDS011;31270;48.328;10.096;2023-07-13T05:01:55;9.18;;;4.68;;
45548;SDS011;31270;48.328;10.096;2023-07-13T05:04:21;8.60;;;4.63;;
45548;SDS011;31270;48.328;10.096;2023-07-13T05:06:47;7.75;;;4.28;;
45548;SDS011;31270;48.328;10.096;2023-07-13T05:09:25;5.03;;;3.80;;
45548;SDS011;31270;48.328;10.096;2023-07-13T05:11:51;6.03;;;4.10;;
45548;SDS011;31270;48.328;10.096;2023-07-13T05:14:17;6.82;;;3.83;;
45548;SDS011;31270;48.328;10.096;2023-07-13T05:16:43;10.07;;;4.07;;
45548;SDS011;31270;48.328;10.096;2023-07-13T05:19:09;5.63;;;4.00;;
45548;SDS011;31270;48.328;10.096;2023-07-13T05:21:35;5.22;;;4.22;;
45548;SDS011;31270;48.328;10.096;2023-07-13T05:24:00;4.93;;;4.47;;
45548;SDS011;31270;48.328;10.096;2023-07-13T05:26:26;5.85;;;4.03;;
45548;SDS011;31270;48.328;10.096;2023-07-13T05:28:52;6.32;;;4.45;;
45548;SDS011;31270;48.328;10.096;2023-07-13T05:31:17;5.80;;;3.85;;
45548;SDS011;31270;48.328;10.096;2023-07-13T05:33:43;7.05;;;4.32;;
45548;SDS011;31270;48.328;10.096;2023-07-13T05:36:09;9.35;;;4.57;;
45548;SDS011;31270;48.328;10.096;2023-07-13T05:38:41;8.98;;;4.18;;
45548;SDS011;31270;48.328;10.096;2023-07-13T05:41:07;7.05;;;3.88;;
45548;SDS011;31270;48.328;10.096;2023-07-13T05:43:33;5.13;;;3.63;;
45548;SDS011;31270;48.328;10.096;2023-07-13T05:45:58;8.43;;;3.65;;
45548;SDS011;31270;48.328;10.096;2023-07-13T05:48:24;6.38;;;3.75;;
45548;SDS011;31270;48.328;10.096;2023-07-13T05:50:50;6.03;;;3.70;;
45548;SDS011;31270;48.328;10.096;2023-07-13T05:53:15;7.78;;;3.95;;
45548;SDS011;31270;48.328;10.096;2023-07-13T05:55:42;5.55;;;3.67;;
45548;SDS011;31270;48.328;10.096;2023-07-13T05:58:08;5.97;;;4.30;;
45548;SDS011;31270;48.328;10.096;2023-07-13T06:00:34;8.95;;;3.92;;
45548;SDS011;31270;48.328;10.096;2023-07-13T06:03:00;9.73;;;4.30;;
45548;SDS011;31270;48.328;10.096;2023-07-13T06:05:25;5.65;;;4.50;;
45548;SDS011;31270;48.328;10.096;2023-07-13T06:07:54;6.22;;;4.57;;
45548;SDS011;31270;48.328;10.096;2023-07-13T06:10:20;4.43;;;3.58;;
45548;SDS011;31270;48.328;10.096;2023-07-13T06:12:46;8.60;;;3.92;;
45548;SDS011;31270;48.328;10.096;2023-07-13T06:15:12;6.57;;;3.53;;
45548;SDS011;31270;48.328;10.096;2023-07-13T06:17:38;6.25;;;3.70;;
45548;SDS011;31270;48.328;10.096;2023-07-13T06:20:03;7.88;;;3.75;;
45548;SDS011;31270;48.328;10.096;2023-07-13T06:22:29;9.20;;;3.78;;
45548;SDS011;31270;48.328;10.096;2023-07-13T06:24:55;8.10;;;3.60;;
45548;SDS011;31270;48.328;10.096;2023-07-13T06:27:21;4.00;;;3.20;;
45548;SDS011;31270;48.328;10.096;2023-07-13T06:29:46;5.95;;;3.50;;
45548;SDS011;31270;48.328;10.096;2023-07-13T06:32:12;5.75;;;3.38;;
45548;SDS011;31270;48.328;10.096;2023-07-13T06:34:38;5.32;;;3.10;;
45548;SDS011;31270;48.328;10.096;2023-07-13T06:37:03;4.03;;;2.60;;
45548;SDS011;31270;48.328;10.096;2023-07-13T06:39:29;5.80;;;3.38;;
45548;SDS011;31270;48.328;10.096;2023-07-13T06:41:54;9.15;;;3.30;;
45548;SDS011;31270;48.328;10.096;2023-07-13T06:44:20;4.55;;;3.00;;
45548;SDS011;31270;48.328;10.096;2023-07-13T06:46:46;3.63;;;3.28;;
45548;SDS011;31270;48.328;10.096;2023-07-13T06:49:11;7.50;;;3.45;;
45548;SDS011;31270;48.328;10.096;2023-07-13T06:51:37;3.08;;;2.78;;
45548;SDS011;31270;48.328;10.096;2023-07-13T06:54:02;3.88;;;2.88;;
45548;SDS011;31270;48.328;10.096;2023-07-13T06:56:28;4.43;;;2.80;;
45548;SDS011;31270;48.328;10.096;2023-07-13T06:58:54;3.08;;;2.78;;
45548;SDS011;31270;48.328;10.096;2023-07-13T07:01:20;4.10;;;2.40;;
45548;SDS011;31270;48.328;10.096;2023-07-13T07:03:45;6.72;;;3.50;;
45548;SDS011;31270;48.328;10.096;2023-07-13T07:06:13;3.65;;;2.92;;
45548;SDS011;31270;48.328;10.096;2023-07-13T07:08:42;6.28;;;3.05;;
45548;SDS011;31270;48.328;10.096;2023-07-13T07:11:16;3.55;;;3.25;;
45548;SDS011;31270;48.328;10.096;2023-07-13T07:13:45;6.32;;;2.83;;
45548;SDS011;31270;48.328;10.096;2023-07-13T07:16:11;4.25;;;3.03;;
45548;SDS011;31270;48.328;10.096;2023-07-13T07:18:37;2.88;;;2.60;;
45548;SDS011;31270;48.328;10.096;2023-07-13T07:21:03;6.30;;;2.50;;
45548;SDS011;31270;48.328;10.096;2023-07-13T07:23:29;4.25;;;2.55;;
45548;SDS011;31270;48.328;10.096;2023-07-13T07:25:55;4.90;;;2.78;;
45548;SDS011;31270;48.328;10.096;2023-07-13T07:28:21;4.68;;;2.90;;
45548;SDS011;31270;48.328;10.096;2023-07-13T07:30:46;4.95;;;2.50;;
45548;SDS011;31270;48.328;10.096;2023-07-13T07:33:13;6.38;;;3.08;;
45548;SDS011;31270;48.328;10.096;2023-07-13T07:35:39;4.57;;;3.22;;
45548;SDS011;31270;48.328;10.096;2023-07-13T07:38:04;3.72;;;2.65;;
45548;SDS011;31270;48.328;10.096;2023-07-13T07:40:30;3.85;;;2.70;;
45548;SDS011;31270;48.328;10.096;2023-07-13T07:42:57;4.97;;;2.58;;
45548;SDS011;31270;48.328;10.096;2023-07-13T07:45:23;3.38;;;2.58;;
45548;SDS011;31270;48.328;10.096;2023-07-13T07:47:48;6.18;;;2.90;;
45548;SDS011;31270;48.328;10.096;2023-07-13T07:50:15;3.78;;;2.40;;
45548;SDS011;31270;48.328;10.096;2023-07-13T07:52:41;4.47;;;2.50;;
45548;SDS011;31270;48.328;10.096;2023-07-13T07:55:07;3.85;;;2.67;;
45548;SDS011;31270;48.328;10.096;2023-07-13T07:57:33;3.13;;;2.60;;
45548;SDS011;31270;48.328;10.096;2023-07-13T07:59:59;2.97;;;2.67;;
45548;SDS011;31270;48.328;10.096;2023-07-13T08:02:25;3.25;;;2.95;;
45548;SDS011;31270;48.328;10.096;2023-07-13T08:04:51;3.33;;;2.70;;
45548;SDS011;31270;48.328;10.096;2023-07-13T08:07:17;4.38;;;2.67;;
45548;SDS011;31270;48.328;10.096;2023-07-13T08:09:43;6.95;;;2.63;;
45548;SDS011;31270;48.328;10.096;2023-07-13T08:12:09;3.58;;;2.65;;
45548;SDS011;31270;48.328;10.096;2023-07-13T08:14:34;3.90;;;2.45;;
45548;SDS011;31270;48.328;10.096;2023-07-13T08:17:00;4.45;;;2.53;;
45548;SDS011;31270;48.328;10.096;2023-07-13T08:19:26;2.88;;;2.47;;
45548;SDS011;31270;48.328;10.096;2023-07-13T08:21:51;4.85;;;2.53;;
45548;SDS011;31270;48.328;10.096;2023-07-13T08:24:17;2.97;;;2.38;;
45548;SDS011;31270;48.328;10.096;2023-07-13T08:26:43;2.78;;;1.90;;
45548;SDS011;31270;48.328;10.096;2023-07-13T08:29:11;3.58;;;2.33;;
45548;SDS011;31270;48.328;10.096;2023-07-13T08:31:36;4.22;;;2.33;;
45548;SDS011;31270;48.328;10.096;2023-07-13T08:34:02;7.40;;;2.33;;
45548;SDS011;31270;48.328;10.096;2023-07-13T08:36:34;5.75;;;2.40;;
45548;SDS011;31270;48.328;10.096;2023-07-13T08:39:00;4.57;;;2.60;;
45548;SDS011;31270;48.328;10.096;2023-07-13T08:41:25;4.50;;;2.30;;
45548;SDS011;31270;48.328;10.096;2023-07-13T08:43:54;6.20;;;2.10;;
45548;SDS011;31270;48.328;10.096;2023-07-13T08:49:12;2.88;;;2.30;;
45548;SDS011;31270;48.328;10.096;2023-07-13T08:51:42;3.92;;;2.30;;
45548;SDS011;31270;48.328;10.096;2023-07-13T08:54:37;3.72;;;2.08;;
45548;SDS011;31270;48.328;10.096;2023-07-13T08:57:11;2.63;;;2.17;;
45548;SDS011;31270;48.328;10.096;2023-07-13T08:59:39;3.70;;;2.03;;
45548;SDS011;31270;48.328;10.096;2023-07-13T09:04:59;6.53;;;2.50;;
45548;SDS011;31270;48.328;10.096;2023-07-13T09:10:14;3.85;;;2.40;;
45548;SDS011;31270;48.328;10.096;2023-07-13T09:15:43;4.35;;;2.00;;
45548;SDS011;31270;48.328;10.096;2023-07-13T09:18:12;4.57;;;2.45;;
45548;SDS011;31270;48.328;10.096;2023-07-13T09:20:56;4.53;;;2.00;;
45548;SDS011;31270;48.328;10.096;2023-07-13T09:23:26;4.10;;;2.10;;
45548;SDS011;31270;48.328;10.096;2023-07-13T09:25:55;2.85;;;1.98;;
45548;SDS011;31270;48.328;10.096;2023-07-13T09:28:28;3.53;;;2.00;;
45548;SDS011;31270;48.328;10.096;2023-07-13T09:31:02;4.43;;;2.30;;
45548;SDS011;31270;48.328;10.096;2023-07-13T09:33:30;3.42;;;1.98;;
45548;SDS011;31270;48.328;10.096;2023-07-13T09:35:59;2.97;;;2.10;;
45548;SDS011;31270;48.328;10.096;2023-07-13T09:38:27;3.42;;;2.03;;
45548;SDS011;31270;48.328;10.096;2023-07-13T09:40:58;4.50;;;2.10;;
45548;SDS011;31270;48.328;10.096;2023-07-13T09:43:25;2.55;;;1.75;;
45548;SDS011;31270;48.328;10.096;2023-07-13T09:45:53;4.22;;;2.08;;
45548;SDS011;31270;48.328;10.096;2023-07-13T09:48:20;4.68;;;1.85;;
45548;SDS011;31270;48.328;10.096;2023-07-13T09:50:45;3.35;;;1.92;;
45548;SDS011;31270;48.328;10.096;2023-07-13T09:53:17;2.17;;;1.75;;
45548;SDS011;31270;48.328;10.096;2023-07-13T09:55:44;2.65;;;1.75;;
45548;SDS011;31270;48.328;10.096;2023-07-13T10:00:42;3.65;;;2.00;;
45548;SDS011;31270;48.328;10.096;2023-07-13T10:03:20;3.53;;;1.95;;
45548;SDS011;31270;48.328;10.096;2023-07-13T10:05:49;2.65;;;1.90;;
45548;SDS011;31270;48.328;10.096;2023-07-13T10:08:26;3.63;;;1.65;;
45548;SDS011;31270;48.328;10.096;2023-07-13T10:11:02;1.67;;;1.50;;
45548;SDS011;31270;48.328;10.096;2023-07-13T10:13:37;2.40;;;1.60;;
45548;SDS011;31270;48.328;10.096;2023-07-13T10:16:33;2.30;;;1.50;;
45548;SDS011;31270;48.328;10.096;2023-07-13T10:19:05;2.28;;;1.20;;
45548;SDS011;31270;48.328;10.096;2023-07-13T10:24:25;3.63;;;1.58;;
45548;SDS011;31270;48.328;10.096;2023-07-13T10:26:57;1.90;;;1.40;;
45548;SDS011;31270;48.328;10.096;2023-07-13T10:29:24;1.77;;;1.60;;
45548;SDS011;31270;48.328;10.096;2023-07-13T10:31:52;4.00;;;1.50;;
45548;SDS011;31270;48.328;10.096;2023-07-13T10:34:18;3.47;;;1.77;;
45548;SDS011;31270;48.328;10.096;2023-07-13T10:36:45;3.00;;;1.83;;
45548;SDS011;31270;48.328;10.096;2023-07-13T10:39:30;4.03;;;1.90;;
45548;SDS011;31270;48.328;10.096;2023-07-13T10:42:01;3.05;;;2.00;;
45548;SDS011;31270;48.328;10.096;2023-07-13T10:44:31;1.70;;;1.60;;
45548;SDS011;31270;48.328;10.096;2023-07-13T10:47:02;2.10;;;1.75;;
45548;SDS011;31270;48.328;10.096;2023-07-13T10:49:37;1.50;;;1.40;;
45548;SDS011;31270;48.328;10.096;2023-07-13T10:52:04;3.25;;;1.83;;
45548;SDS011;31270;48.328;10.096;2023-07-13T10:59:45;1.65;;;1.55;;
45548;SDS011;31270;48.328;10.096;2023-07-13T11:02:34;4.07;;;1.80;;
45548;SDS011;31270;48.328;10.096;2023-07-13T11:05:01;3.45;;;2.00;;
45548;SDS011;31270;48.328;10.096;2023-07-13T11:07:55;4.53;;;1.73;;
45548;SDS011;31270;48.328;10.096;2023-07-13T11:10:47;4.72;;;1.90;;
45548;SDS011;31270;48.328;10.096;2023-07-13T11:13:35;3.83;;;1.85;;
45548;SDS011;31270;48.328;10.096;2023-07-13T11:18:46;2.95;;;1.98;;
45548;SDS011;31270;48.328;10.096;2023-07-13T11:21:17;6.35;;;1.60;;
45548;SDS011;31270;48.328;10.096;2023-07-13T11:23:45;3.00;;;2.08;;
45548;SDS011;31270;48.328;10.096;2023-07-13T11:31:57;2.58;;;1.50;;
45548;SDS011;31270;48.328;10.096;2023-07-13T11:34:27;2.03;;;1.60;;
45548;SDS011;31270;48.328;10.096;2023-07-13T11:36:57;6.50;;;2.25;;
45548;SDS011;31270;48.328;10.096;2023-07-13T11:39:29;3.08;;;1.52;;
45548;SDS011;31270;48.328;10.096;2023-07-13T11:41:58;3.03;;;1.42;;
45548;SDS011;31270;48.328;10.096;2023-07-13T11:44:27;2.95;;;1.60;;
45548;SDS011;31270;48.328;10.096;2023-07-13T11:46:55;5.07;;;1.75;;
45548;SDS011;31270;48.328;10.096;2023-07-13T11:49:28;4.68;;;1.77;;
45548;SDS011;31270;48.328;10.096;2023-07-13T11:52:01;3.38;;;1.60;;
45548;SDS011;31270;48.328;10.096;2023-07-13T11:54:41;1.75;;;1.52;;
45548;SDS011;31270;48.328;10.096;2023-07-13T11:57:26;2.55;;;1.40;;
45548;SDS011;31270;48.328;10.096;2023-07-13T11:59:58;2.17;;;1.60;;
45548;SDS011;31270;48.328;10.096;2023-07-13T12:02:32;3.92;;;1.60;;
45548;SDS011;31270;48.328;10.096;2023-07-13T12:05:02;5.05;;;1.70;;
45548;SDS011;31270;48.328;10.096;2023-07-13T12:07:31;3.30;;;1.50;;
45548;SDS011;31270;48.328;10.096;2023-07-13T12:10:15;2.05;;;1.95;;
45548;SDS011;31270;48.328;10.096;2023-07-13T12:13:00;4.65;;;1.67;;
45548;SDS011;31270;48.328;10.096;2023-07-13T12:15:36;2.45;;;1.90;;
45548;SDS011;31270;48.328;10.096;2023-07-13T12:18:15;2.65;;;1.70;;
45548;SDS011;31270;48.328;10.096;2023-07-13T12:20:43;3.58;;;1.80;;
45548;SDS011;31270;48.328;10.096;2023-07-13T12:23:32;2.53;;;1.50;;
45548;SDS011;31270;48.328;10.096;2023-07-13T12:26:00;2.70;;;1.50;;
45548;SDS011;31270;48.328;10.096;2023-07-13T12:31:35;2.15;;;1.95;;
45548;SDS011;31270;48.328;10.096;2023-07-13T12:34:12;2.70;;;1.40;;
45548;SDS011;31270;48.328;10.096;2023-07-13T12:36:49;2.58;;;1.45;;
45548;SDS011;31270;48.328;10.096;2023-07-13T12:42:35;2.60;;;1.58;;
45548;SDS011;31270;48.328;10.096;2023-07-13T12:44:58;1.75;;;1.45;;
45548;SDS011;31270;48.328;10.096;2023-07-13T12:47:31;4.35;;;1.85;;
45548;SDS011;31270;48.328;10.096;2023-07-13T12:50:12;4.25;;;1.70;;
45548;SDS011;31270;48.328;10.096;2023-07-13T12:52:42;2.95;;;1.50;;
45548;SDS011;31270;48.328;10.096;2023-07-13T12:55:13;4.35;;;1.83;;
45548;SDS011;31270;48.328;10.096;2023-07-13T12:57:49;1.63;;;1.52;;
45548;SDS011;31270;48.328;10.096;2023-07-13T13:00:22;2.72;;;1.75;;
45548;SDS011;31270;48.328;10.096;2023-07-13T13:03:00;2.45;;;1.65;;
45548;SDS011;31270;48.328;10.096;2023-07-13T13:05:29;3.13;;;2.03;;
45548;SDS011;31270;48.328;10.096;2023-07-13T13:07:57;2.47;;;1.52;;
45548;SDS011;31270;48.328;10.096;2023-07-13T13:10:22;2.75;;;1.70;;
45548;SDS011;31270;48.328;10.096;2023-07-13T13:12:49;4.13;;;1.80;;
45548;SDS011;31270;48.328;10.096;2023-07-13T13:15:15;1.50;;;1.40;;
45548;SDS011;31270;48.328;10.096;2023-07-13T13:17:41;5.13;;;1.65;;
45548;SDS011;31270;48.328;10.096;2023-07-13T13:20:18;1.95;;;1.60;;
45548;SDS011;31270;48.328;10.096;2023-07-13T13:22:45;2.67;;;1.73;;
45548;SDS011;31270;48.328;10.096;2023-07-13T13:25:12;1.73;;;1.48;;
45548;SDS011;31270;48.328;10.096;2023-07-13T13:27:42;3.35;;;1.70;;
45548;SDS011;31270;48.328;10.096;2023-07-13T13:30:10;3.13;;;1.58;;
45548;SDS011;31270;48.328;10.096;2023-07-13T13:32:41;2.78;;;1.60;;
45548;SDS011;31270;48.328;10.096;2023-07-13T13:35:15;2.25;;;1.70;;
45548;SDS011;31270;48.328;10.096;2023-07-13T13:37:42;4.25;;;1.73;;
45548;SDS011;31270;48.328;10.096;2023-07-13T13:40:16;4.70;;;1.85;;
45548;SDS011;31270;48.328;10.096;2023-07-13T13:42:44;4.07;;;1.60;;
45548;SDS011;31270;48.328;10.096;2023-07-13T13:45:10;2.38;;;1.40;;
45548;SDS011;31270;48.328;10.096;2023-07-13T13:47:37;2.65;;;1.73;;
45548;SDS011;31270;48.328;10.096;2023-07-13T13:50:13;1.75;;;1.38;;
45548;SDS011;31270;48.328;10.096;2023-07-13T13:52:42;2.65;;;1.58;;
45548;SDS011;31270;48.328;10.096;2023-07-13T13:55:18;3.30;;;1.42;;
45548;SDS011;31270;48.328;10.096;2023-07-13T13:57:46;2.22;;;1.50;;
45548;SDS011;31270;48.328;10.096;2023-07-13T14:00:13;4.32;;;1.60;;
45548;SDS011;31270;48.328;10.096;2023-07-13T14:02:42;2.47;;;1.38;;
45548;SDS011;31270;48.328;10.096;2023-07-13T14:05:15;2.75;;;1.52;;
45548;SDS011;31270;48.328;10.096;2023-07-13T14:07:45;4.03;;;1.80;;
45548;SDS011;31270;48.328;10.096;2023-07-13T14:10:12;3.60;;;1.48;;
45548;SDS011;31270;48.328;10.096;2023-07-13T14:12:40;2.28;;;1.73;;
45548;SDS011;31270;48.328;10.096;2023-07-13T14:15:17;3.75;;;1.92;;
45548;SDS011;31270;48.328;10.096;2023-07-13T14:17:52;2.10;;;1.60;;
45548;SDS011;31270;48.328;10.096;2023-07-13T14:20:19;2.97;;;1.50;;
45548;SDS011;31270;48.328;10.096;2023-07-13T14:22:47;2.75;;;1.60;;
45548;SDS011;31270;48.328;10.096;2023-07-13T14:25:14;3.38;;;1.80;;
45548;SDS011;31270;48.328;10.096;2023-07-13T14:27:41;2.63;;;1.70;;
45548;SDS011;31270;48.328;10.096;2023-07-13T14:30:12;2.08;;;1.55;;
45548;SDS011;31270;48.328;10.096;2023-07-13T14:32:42;3.53;;;1.75;;
45548;SDS011;31270;48.328;10.096;2023-07-13T14:35:13;2.60;;;1.80;;
45548;SDS011;31270;48.328;10.096;2023-07-13T14:37:40;2.13;;;1.70;;
45548;SDS011;31270;48.328;10.096;2023-07-13T14:40:16;4.38;;;2.08;;
45548;SDS011;31270;48.328;10.096;2023-07-13T14:42:46;3.30;;;1.60;;
45548;SDS011;31270;48.328;10.096;2023-07-13T14:45:16;3.15;;;1.55;;
45548;SDS011;31270;48.328;10.096;2023-07-13T14:47:44;3.35;;;1.67;;
45548;SDS011;31270;48.328;10.096;2023-07-13T14:50:19;2.75;;;1.65;;
45548;SDS011;31270;48.328;10.096;2023-07-13T14:52:56;2.55;;;1.40;;
45548;SDS011;31270;48.328;10.096;2023-07-13T14:55:21;3.10;;;1.88;;
45548;SDS011;31270;48.328;10.096;2023-07-13T14:57:48;3.25;;;1.77;;
45548;SDS011;31270;48.328;10.096;2023-07-13T15:00:16;3.70;;;1.70;;
45548;SDS011;31270;48.328;10.096;2023-07-13T15:02:53;2.65;;;1.65;;
45548;SDS011;31270;48.328;10.096;2023-07-13T15:05:30;1.92;;;1.40;;
45548;SDS011;31270;48.328;10.096;2023-07-13T15:07:57;4.30;;;1.90;;
45548;SDS011;31270;48.328;10.096;2023-07-13T15:10:29;2.05;;;1.60;;
45548;SDS011;31270;48.328;10.096;2023-07-13T15:13:00;2.65;;;1.70;;
45548;SDS011;31270;48.328;10.096;2023-07-13T15:15:37;2.58;;;1.60;;
45548;SDS011;31270;48.328;10.096;2023-07-13T15:18:07;4.90;;;1.80;;